createdAt,value
2023-05-10T00:01:12.295Z,100.00
2023-05-10T00:03:39.192Z,100.00
2023-05-10T00:06:06.285Z,100.00
2023-05-10T00:08:33.017Z,100.00
2023-05-10T00:10:59.759Z,100.00
2023-05-10T00:13:26.713Z,100.00
2023-05-10T00:15:54.173Z,100.00
2023-05-10T00:18:20.898Z,100.00
2023-05-10T00:20:47.950Z,100.00
2023-05-10T00:23:14.697Z,100.00
2023-05-10T00:25:41.517Z,100.00
2023-05-10T00:28:08.386Z,100.00
2023-05-10T00:30:35.108Z,100.00
2023-05-10T00:33:02.518Z,100.00
2023-05-10T00:35:29.502Z,100.00
2023-05-10T00:37:56.456Z,100.00
2023-05-10T00:40:23.703Z,100.00
2023-05-10T00:42:53.876Z,100.00
2023-05-10T00:45:21.607Z,100.00
2023-05-10T00:47:48.502Z,100.00
2023-05-10T00:50:16.290Z,100.00
2023-05-10T00:52:43.466Z,100.00
2023-05-10T00:55:11.147Z,100.00
2023-05-10T00:57:38.081Z,100.00
2023-05-10T01:00:06.050Z,100.00
2023-05-10T01:02:35.015Z,100.00
2023-05-10T01:05:03.138Z,100.00
2023-05-10T01:07:30.392Z,100.00
2023-05-10T01:09:57.838Z,100.00
2023-05-10T01:12:24.645Z,100.00
2023-05-10T01:14:51.530Z,100.00
2023-05-10T01:17:18.474Z,100.00
2023-05-10T01:19:45.442Z,100.00
2023-05-10T01:22:22.749Z,100.00
2023-05-10T01:25:05.938Z,100.00
2023-05-10T01:27:35.657Z,100.00
2023-05-10T01:30:22.294Z,100.00
2023-05-10T01:33:25.732Z,100.00
2023-05-10T01:36:00.340Z,100.00
2023-05-10T01:38:43.014Z,100.00
2023-05-10T01:41:16.047Z,100.00
2023-05-10T01:44:06.932Z,100.00
2023-05-10T01:46:40.616Z,100.00
2023-05-10T01:49:10.640Z,100.00
2023-05-10T01:51:42.250Z,100.00
2023-05-10T01:54:09.009Z,100.00
2023-05-10T01:56:36.422Z,100.00
2023-05-10T01:59:06.833Z,100.00
2023-05-10T02:01:33.854Z,100.00
2023-05-10T02:04:00.654Z,100.00
2023-05-10T02:06:27.595Z,100.00
2023-05-10T02:08:54.416Z,100.00
2023-05-10T02:11:21.962Z,100.00
2023-05-10T02:13:50.207Z,100.00
2023-05-10T02:16:17.466Z,100.00
2023-05-10T02:18:44.404Z,100.00
2023-05-10T02:21:11.400Z,100.00
2023-05-10T02:23:39.235Z,100.00
2023-05-10T02:26:06.823Z,100.00
2023-05-10T02:28:33.702Z,100.00
2023-05-10T02:31:00.756Z,100.00
2023-05-10T02:33:27.967Z,100.00
2023-05-10T02:35:54.678Z,100.00
2023-05-10T02:38:22.427Z,100.00
2023-05-10T02:40:49.237Z,100.00
2023-05-10T02:43:15.988Z,100.00
2023-05-10T02:45:42.824Z,100.00
2023-05-10T02:48:09.953Z,100.00
2023-05-10T02:50:36.752Z,100.00
2023-05-10T02:53:12.634Z,100.00
2023-05-10T02:55:41.383Z,100.00
2023-05-10T02:58:08.288Z,100.00
2023-05-10T03:00:35.216Z,100.00
2023-05-10T03:03:02.511Z,100.00
2023-05-10T03:05:29.809Z,100.00
2023-05-10T03:07:56.985Z,100.00
2023-05-10T03:10:28.165Z,100.00
2023-05-10T03:13:18.831Z,100.00
2023-05-10T03:15:56.495Z,100.00
2023-05-10T03:18:24.694Z,100.00
2023-05-10T03:20:56.656Z,100.00
2023-05-10T03:23:46.714Z,100.00
2023-05-10T03:26:21.577Z,100.00
2023-05-10T03:28:49.358Z,100.00
2023-05-10T03:31:16.496Z,100.00
2023-05-10T03:33:50.167Z,100.00
2023-05-10T03:36:19.105Z,100.00
2023-05-10T03:38:46.269Z,100.00
2023-05-10T03:41:13.637Z,100.00
2023-05-10T03:43:40.759Z,99.93
2023-05-10T03:46:07.527Z,97.83
2023-05-10T03:48:34.740Z,93.79
2023-05-10T03:51:01.541Z,91.11
2023-05-10T03:53:28.575Z,88.31
2023-05-10T03:55:55.598Z,85.88
2023-05-10T03:58:22.912Z,83.63
2023-05-10T04:00:49.780Z,81.53
2023-05-10T04:03:16.859Z,80.19
2023-05-10T04:05:44.068Z,78.06
2023-05-10T04:08:10.890Z,76.33
2023-05-10T04:10:37.720Z,75.06
2023-05-10T04:13:04.502Z,74.27
2023-05-10T04:15:31.379Z,72.98
2023-05-10T04:17:58.350Z,71.63
2023-05-10T04:20:25.533Z,70.43
2023-05-10T04:22:52.304Z,69.35
2023-05-10T04:25:19.336Z,67.17
2023-05-10T04:27:46.157Z,64.77
2023-05-10T04:30:13.292Z,63.02
2023-05-10T04:32:40.574Z,61.49
2023-05-10T04:35:08.097Z,59.95
2023-05-10T04:37:34.831Z,57.79
2023-05-10T04:40:01.823Z,56.26
2023-05-10T04:42:28.703Z,54.14
2023-05-10T04:44:55.726Z,52.48
2023-05-10T04:47:22.563Z,51.76
2023-05-10T04:49:49.401Z,51.25
2023-05-10T04:52:18.411Z,50.29
2023-05-10T04:54:45.241Z,49.54
2023-05-10T04:57:12.027Z,49.24
2023-05-10T04:59:38.884Z,49.17
2023-05-10T05:02:06.134Z,49.29
2023-05-10T05:04:33.154Z,50.01
2023-05-10T05:07:00.131Z,50.89
2023-05-10T05:09:26.999Z,52.35
2023-05-10T05:11:53.843Z,53.63
2023-05-10T05:14:21.971Z,55.02
2023-05-10T05:16:48.863Z,56.94
2023-05-10T05:19:16.485Z,58.01
2023-05-10T05:21:43.266Z,59.28
2023-05-10T05:24:11.238Z,60.39
2023-05-10T05:26:38.260Z,62.34
2023-05-10T05:29:16.039Z,63.78
2023-05-10T05:31:46.444Z,65.75
2023-05-10T05:34:13.408Z,67.95
2023-05-10T05:36:40.240Z,69.33
2023-05-10T05:39:07.027Z,70.91
2023-05-10T05:41:33.862Z,72.21
2023-05-10T05:44:00.711Z,72.84
2023-05-10T05:46:27.850Z,73.01
2023-05-10T05:48:55.090Z,74.15
2023-05-10T05:51:21.812Z,74.89
2023-05-10T05:53:48.638Z,75.86
2023-05-10T05:56:16.389Z,76.44
2023-05-10T05:58:43.664Z,76.84
2023-05-10T06:01:10.566Z,76.52
2023-05-10T06:03:37.576Z,76.59
2023-05-10T06:06:04.955Z,76.38
2023-05-10T06:08:31.861Z,76.63
2023-05-10T06:10:58.652Z,77.19
2023-05-10T06:13:25.651Z,77.02
2023-05-10T06:15:52.724Z,77.07
2023-05-10T06:20:14.392Z,76.66
2023-05-10T06:22:41.332Z,76.31
2023-05-10T06:25:08.944Z,76.51
2023-05-10T06:27:35.882Z,76.47
2023-05-10T06:30:12.454Z,75.47
2023-05-10T06:32:40.111Z,74.61
2023-05-10T06:35:07.853Z,72.78
2023-05-10T06:37:35.601Z,73.28
2023-05-10T06:40:03.411Z,73.54
2023-05-10T06:42:30.235Z,73.49
2023-05-10T06:44:56.938Z,73.44
2023-05-10T06:47:23.674Z,73.54
2023-05-10T06:49:50.475Z,73.76
2023-05-10T06:52:17.194Z,74.18
2023-05-10T06:54:44.013Z,74.34
2023-05-10T06:57:23.481Z,74.33
2023-05-10T06:59:58.108Z,73.57
2023-05-10T07:02:24.957Z,73.07
2023-05-10T07:04:53.066Z,72.08
2023-05-10T07:07:20.021Z,72.50
2023-05-10T07:09:46.934Z,71.48
2023-05-10T07:12:15.361Z,70.58
2023-05-10T07:14:44.602Z,71.48
2023-05-10T07:17:11.486Z,72.78
2023-05-10T07:19:38.317Z,73.61
2023-05-10T07:22:05.162Z,73.20
2023-05-10T07:24:33.088Z,73.30
2023-05-10T07:26:59.827Z,73.37
2023-05-10T07:29:26.683Z,71.31
2023-05-10T07:31:55.367Z,69.57
2023-05-10T07:34:23.909Z,68.10
2023-05-10T07:36:50.669Z,67.91
2023-05-10T07:39:26.702Z,68.09
2023-05-10T07:41:55.677Z,68.13
2023-05-10T07:44:22.593Z,67.44
2023-05-10T07:46:49.638Z,65.71
2023-05-10T07:49:16.647Z,65.46
2023-05-10T07:51:43.669Z,65.48
2023-05-10T07:54:10.531Z,64.43
2023-05-10T07:56:37.562Z,63.63
2023-05-10T07:59:05.291Z,62.54
2023-05-10T08:01:33.445Z,61.86
2023-05-10T08:04:01.049Z,60.59
2023-05-10T08:06:29.151Z,57.98
2023-05-10T08:08:56.487Z,58.51
2023-05-10T08:11:23.356Z,58.32
2023-05-10T08:13:50.808Z,55.80
2023-05-10T08:16:18.010Z,55.97
2023-05-10T08:18:46.433Z,56.50
2023-05-10T08:21:13.795Z,54.21
2023-05-10T08:23:40.600Z,53.95
2023-05-10T08:26:07.428Z,55.66
2023-05-10T08:28:34.460Z,51.45
2023-05-10T08:31:01.515Z,51.94
2023-05-10T08:33:28.275Z,52.16
2023-05-10T08:35:55.389Z,51.63
2023-05-10T08:38:22.096Z,51.58
2023-05-10T08:40:48.820Z,50.61
2023-05-10T08:43:16.433Z,49.36
2023-05-10T08:45:44.430Z,49.36
2023-05-10T08:48:11.479Z,49.43
2023-05-10T08:50:40.394Z,50.14
2023-05-10T08:53:10.501Z,49.90
2023-05-10T08:58:53.672Z,47.70
2023-05-10T09:01:20.655Z,47.47
2023-05-10T09:03:48.460Z,47.25
2023-05-10T09:06:16.510Z,44.99
2023-05-10T09:08:43.832Z,42.85
2023-05-10T09:11:10.750Z,43.47
2023-05-10T09:13:37.706Z,43.27
2023-05-10T09:16:17.510Z,43.15
2023-05-10T09:18:47.977Z,42.00
2023-05-10T09:21:14.786Z,41.99
2023-05-10T09:23:48.635Z,41.36
2023-05-10T09:26:15.766Z,41.46
2023-05-10T09:28:53.548Z,41.18
2023-05-10T09:31:21.117Z,40.00
2023-05-10T09:33:49.253Z,39.49
2023-05-10T09:36:16.490Z,38.37
2023-05-10T09:38:47.520Z,39.99
2023-05-10T09:41:24.154Z,40.41
2023-05-10T09:43:51.229Z,40.91
2023-05-10T09:46:18.002Z,42.08
2023-05-10T09:48:46.452Z,43.09
2023-05-10T09:51:23.433Z,41.03
2023-05-10T09:54:03.388Z,39.70
2023-05-10T09:56:36.996Z,39.24
2023-05-10T09:59:04.233Z,38.95
2023-05-10T10:01:31.607Z,39.50
2023-05-10T10:03:59.400Z,39.95
2023-05-10T10:06:30.188Z,40.00
2023-05-10T10:08:57.292Z,39.45
2023-05-10T10:11:24.666Z,40.62
2023-05-10T10:13:51.473Z,41.28
2023-05-10T10:16:18.234Z,40.57
2023-05-10T10:18:45.139Z,40.29
2023-05-10T10:21:11.988Z,40.12
2023-05-10T10:23:38.742Z,39.33
2023-05-10T10:26:05.599Z,39.10
2023-05-10T10:28:36.661Z,39.55
2023-05-10T10:31:18.743Z,39.30
2023-05-10T10:34:02.026Z,39.69
2023-05-10T10:36:37.479Z,38.86
2023-05-10T10:39:09.314Z,39.44
2023-05-10T10:41:41.238Z,37.91
2023-05-10T10:44:24.381Z,37.57
2023-05-10T10:47:12.362Z,38.06
2023-05-10T10:49:39.845Z,37.57
2023-05-10T10:52:22.108Z,38.27
2023-05-10T10:54:53.387Z,38.47
2023-05-10T10:57:20.936Z,38.15
2023-05-10T10:59:47.786Z,37.31
2023-05-10T11:02:38.693Z,36.44
2023-05-10T11:05:33.814Z,37.21
2023-05-10T11:08:01.249Z,39.35
2023-05-10T11:10:28.226Z,40.19
2023-05-10T11:13:01.935Z,38.75
2023-05-10T11:15:32.669Z,38.89
2023-05-10T11:17:59.625Z,39.03
2023-05-10T11:20:34.386Z,37.89
2023-05-10T11:23:12.937Z,37.79
2023-05-10T11:25:45.123Z,38.44
2023-05-10T11:28:32.353Z,39.33
2023-05-10T11:30:59.392Z,39.94
2023-05-10T11:33:26.198Z,38.98
2023-05-10T11:35:56.658Z,38.68
2023-05-10T11:38:31.528Z,38.57
2023-05-10T11:41:01.816Z,40.12
2023-05-10T11:43:31.897Z,37.11
2023-05-10T11:46:01.321Z,38.15
2023-05-10T11:48:34.848Z,38.74
2023-05-10T11:51:09.080Z,37.30
2023-05-10T11:53:41.949Z,37.80
2023-05-10T11:59:27.533Z,35.86
2023-05-10T12:01:54.791Z,36.17
2023-05-10T12:04:21.672Z,37.83
2023-05-10T12:06:48.575Z,38.13
2023-05-10T12:09:15.771Z,38.06
2023-05-10T12:11:44.578Z,36.86
2023-05-10T12:14:11.972Z,36.58
2023-05-10T12:16:38.786Z,36.62
2023-05-10T12:19:06.564Z,35.90
2023-05-10T12:21:33.626Z,36.18
2023-05-10T12:24:03.362Z,37.84
2023-05-10T12:26:30.238Z,37.62
2023-05-10T12:29:12.828Z,37.52
2023-05-10T12:31:56.603Z,37.70
2023-05-10T12:34:37.173Z,36.91
2023-05-10T12:37:04.196Z,36.59
2023-05-10T12:39:44.370Z,36.38
2023-05-10T12:42:11.239Z,34.96
2023-05-10T12:44:37.985Z,35.95
2023-05-10T12:47:04.940Z,36.65
2023-05-10T12:49:31.990Z,38.55
2023-05-10T12:51:58.871Z,38.52
2023-05-10T12:54:25.907Z,38.38
2023-05-10T12:56:53.201Z,38.36
2023-05-10T12:59:19.907Z,38.38
2023-05-10T13:01:46.791Z,38.17
2023-05-10T13:04:13.774Z,37.49
2023-05-10T13:06:40.767Z,36.78
2023-05-10T13:09:08.057Z,36.04
2023-05-10T13:11:35.032Z,37.07
2023-05-10T13:14:01.949Z,36.98
2023-05-10T13:16:28.885Z,36.18
2023-05-10T13:18:55.960Z,36.60
2023-05-10T13:21:25.210Z,35.65
2023-05-10T13:23:52.201Z,36.16
2023-05-10T13:26:19.028Z,35.55
2023-05-10T13:28:47.086Z,36.59
2023-05-10T13:31:13.969Z,36.36
2023-05-10T13:33:40.929Z,36.20
2023-05-10T13:36:07.843Z,36.99
2023-05-10T13:38:34.768Z,37.62
2023-05-10T13:41:01.616Z,37.45
2023-05-10T13:43:28.859Z,37.19
2023-05-10T13:45:55.797Z,37.43
2023-05-10T13:48:22.901Z,37.89
2023-05-10T13:50:49.803Z,37.85
2023-05-10T13:53:16.820Z,37.10
2023-05-10T13:55:44.109Z,35.01
2023-05-10T13:58:13.912Z,35.31
2023-05-10T14:00:40.678Z,35.51
2023-05-10T14:03:10.362Z,36.08
2023-05-10T14:05:37.500Z,37.65
2023-05-10T14:08:05.265Z,37.58
2023-05-10T14:10:32.309Z,37.18
2023-05-10T14:12:59.291Z,37.29
2023-05-10T14:15:26.210Z,36.05
2023-05-10T14:17:53.070Z,36.91
2023-05-10T14:20:19.994Z,37.37
2023-05-10T14:22:46.880Z,36.73
2023-05-10T14:25:13.736Z,36.78
2023-05-10T14:27:40.541Z,37.30
2023-05-10T14:30:08.071Z,36.25
2023-05-10T14:32:34.997Z,37.30
2023-05-10T14:35:01.802Z,36.62
2023-05-10T14:37:28.616Z,37.34
2023-05-10T14:39:55.457Z,37.04
2023-05-10T14:42:22.401Z,36.66
2023-05-10T14:44:49.283Z,35.97
2023-05-10T14:47:16.097Z,36.10
2023-05-10T14:49:45.703Z,36.38
2023-05-10T14:52:13.444Z,36.37
2023-05-10T14:54:41.507Z,35.75
2023-05-10T14:57:08.312Z,35.88
2023-05-10T14:59:35.194Z,36.49
2023-05-10T15:02:02.623Z,36.08
2023-05-10T15:04:29.869Z,36.29
2023-05-10T15:07:00.389Z,36.09
2023-05-10T15:09:28.670Z,35.92
2023-05-10T15:11:56.204Z,36.64
2023-05-10T15:14:23.746Z,37.10
2023-05-10T15:16:50.933Z,36.54
2023-05-10T15:19:17.701Z,36.47
2023-05-10T15:21:45.679Z,36.82
2023-05-10T15:24:12.585Z,36.63
2023-05-10T15:26:39.343Z,36.66
2023-05-10T15:29:06.335Z,36.82
2023-05-10T15:31:36.073Z,36.61
2023-05-10T15:34:03.066Z,37.04
2023-05-10T15:36:29.824Z,37.14
2023-05-10T15:38:56.913Z,37.19
2023-05-10T15:41:24.575Z,37.35
2023-05-10T15:43:51.476Z,37.15
2023-05-10T15:46:21.073Z,36.79
2023-05-10T15:48:48.009Z,35.58
2023-05-10T15:51:15.534Z,35.21
2023-05-10T15:53:56.449Z,35.45
2023-05-10T15:56:27.487Z,36.11
2023-05-10T15:58:55.137Z,36.11
2023-05-10T16:01:22.240Z,36.73
2023-05-10T16:03:49.167Z,35.91
2023-05-10T16:06:15.981Z,36.46
2023-05-10T16:08:42.909Z,37.12
2023-05-10T16:11:09.655Z,37.49
2023-05-10T16:13:36.490Z,38.32
2023-05-10T16:16:03.282Z,37.38
2023-05-10T16:18:30.271Z,37.66
2023-05-10T16:20:59.250Z,37.67
2023-05-10T16:23:25.962Z,37.76
2023-05-10T16:25:52.826Z,37.99
2023-05-10T16:28:21.361Z,37.68
2023-05-10T16:30:48.769Z,38.59
2023-05-10T16:33:15.631Z,37.66
2023-05-10T16:35:42.435Z,37.78
2023-05-10T16:38:09.176Z,37.71
2023-05-10T16:40:36.013Z,37.58
2023-05-10T16:43:02.841Z,38.00
2023-05-10T16:45:32.123Z,37.95
2023-05-10T16:47:58.973Z,37.96
2023-05-10T16:50:25.998Z,38.69
2023-05-10T16:52:52.711Z,39.22
2023-05-10T16:55:19.701Z,39.29
2023-05-10T16:57:46.545Z,39.04
2023-05-10T17:00:14.185Z,39.10
2023-05-10T17:02:41.818Z,39.05
2023-05-10T17:05:09.232Z,39.59
2023-05-10T17:07:37.747Z,39.96
2023-05-10T17:10:05.218Z,40.33
2023-05-10T17:12:33.225Z,40.25
2023-05-10T17:15:00.404Z,40.60
2023-05-10T17:17:27.293Z,40.94
2023-05-10T17:19:54.130Z,41.23
2023-05-10T17:22:21.025Z,41.41
2023-05-10T17:24:47.918Z,41.79
2023-05-10T17:27:15.058Z,42.27
2023-05-10T17:29:42.230Z,42.21
2023-05-10T17:32:11.949Z,42.62
2023-05-10T17:34:38.853Z,43.45
2023-05-10T17:37:05.951Z,43.65
2023-05-10T17:39:32.661Z,44.24
2023-05-10T17:41:59.577Z,44.06
2023-05-10T17:44:35.270Z,44.81
2023-05-10T17:47:11.242Z,44.99
2023-05-10T17:49:38.055Z,45.34
2023-05-10T17:52:04.946Z,46.02
2023-05-10T17:54:32.274Z,46.82
2023-05-10T17:57:01.354Z,46.97
2023-05-10T17:59:28.462Z,47.24
2023-05-10T18:02:00.990Z,47.87
2023-05-10T18:04:43.632Z,48.17
2023-05-10T18:07:17.046Z,48.15
2023-05-10T18:09:43.809Z,48.86
2023-05-10T18:12:10.922Z,49.25
2023-05-10T18:14:41.062Z,49.55
2023-05-10T18:17:09.470Z,49.72
2023-05-10T18:19:36.415Z,50.56
2023-05-10T18:22:03.623Z,50.56
2023-05-10T18:24:38.869Z,50.66
2023-05-10T18:27:10.248Z,50.45
2023-05-10T18:29:37.458Z,51.33
2023-05-10T18:32:04.577Z,51.32
2023-05-10T18:34:31.385Z,51.13
2023-05-10T18:37:56.603Z,51.71
2023-05-10T18:40:23.744Z,51.71
2023-05-10T18:42:50.673Z,52.45
2023-05-10T18:45:17.812Z,52.90
2023-05-10T18:47:45.294Z,53.33
2023-05-10T18:50:13.502Z,53.43
2023-05-10T18:52:40.288Z,53.69
2023-05-10T18:55:08.456Z,53.79
2023-05-10T18:57:41.569Z,54.01
2023-05-10T19:00:10.466Z,54.36
2023-05-10T19:02:40.247Z,54.31
2023-05-10T19:05:07.967Z,54.51
2023-05-10T19:07:35.187Z,54.59
2023-05-10T19:10:02.280Z,55.01
2023-05-10T19:12:29.078Z,55.10
2023-05-10T19:14:55.907Z,55.11
2023-05-10T19:17:22.956Z,54.99
2023-05-10T19:19:49.801Z,55.24
2023-05-10T19:22:28.263Z,55.32
2023-05-10T19:25:04.346Z,55.78
2023-05-10T19:27:32.389Z,55.94
2023-05-10T19:29:59.426Z,55.85
2023-05-10T19:32:26.483Z,55.89
2023-05-10T19:34:53.283Z,56.06
2023-05-10T19:37:20.123Z,56.52
2023-05-10T19:39:47.623Z,56.80
2023-05-10T19:42:14.538Z,56.69
2023-05-10T19:44:41.351Z,56.81
2023-05-10T19:47:09.631Z,56.99
2023-05-10T19:49:36.685Z,56.89
2023-05-10T19:52:04.972Z,57.24
2023-05-10T19:54:31.866Z,57.17
2023-05-10T19:56:59.935Z,57.46
2023-05-10T19:59:26.770Z,57.66
2023-05-10T20:01:53.524Z,57.88
2023-05-10T20:04:21.810Z,57.90
2023-05-10T20:06:48.592Z,58.33
2023-05-10T20:09:15.740Z,58.30
2023-05-10T20:11:42.668Z,58.85
2023-05-10T20:14:09.442Z,59.30
2023-05-10T20:16:36.301Z,59.47
2023-05-10T20:19:03.274Z,59.80
2023-05-10T20:21:30.150Z,59.73
2023-05-10T20:23:56.900Z,60.24
2023-05-10T20:26:23.893Z,60.72
2023-05-10T20:28:51.289Z,60.62
2023-05-10T20:31:18.062Z,60.47
2023-05-10T20:33:44.987Z,60.60
2023-05-10T20:36:12.171Z,60.84
2023-05-10T20:38:39.459Z,60.94
2023-05-10T20:41:06.276Z,61.30
2023-05-10T20:43:33.209Z,61.71
2023-05-10T20:46:05.299Z,61.90
2023-05-10T20:48:35.394Z,61.90
2023-05-10T20:51:02.714Z,62.19
2023-05-10T20:53:29.665Z,62.51
2023-05-10T20:55:56.614Z,62.63
2023-05-10T20:58:23.798Z,62.63
2023-05-10T21:00:50.662Z,63.06
2023-05-10T21:03:17.782Z,63.19
2023-05-10T21:05:44.540Z,63.27
2023-05-10T21:08:11.283Z,63.16
2023-05-10T21:10:38.306Z,63.34
2023-05-10T21:13:05.317Z,63.75
2023-05-10T21:15:32.731Z,63.78
2023-05-10T21:18:00.113Z,64.07
2023-05-10T21:20:26.891Z,64.49
2023-05-10T21:22:53.686Z,64.70
2023-05-10T21:25:21.606Z,65.14
2023-05-10T21:27:48.608Z,65.32
2023-05-10T21:30:15.481Z,65.56
2023-05-10T21:32:42.717Z,65.84
2023-05-10T21:35:10.057Z,67.07
2023-05-10T21:37:36.900Z,66.71
2023-05-10T21:40:04.881Z,67.16
2023-05-10T21:42:32.069Z,67.12
2023-05-10T21:44:58.981Z,67.45
2023-05-10T21:47:25.805Z,67.87
2023-05-10T21:49:52.660Z,68.12
2023-05-10T21:52:19.534Z,68.05
2023-05-10T21:54:46.328Z,68.88
2023-05-10T21:57:13.120Z,68.90
2023-05-10T21:59:40.017Z,69.23
2023-05-10T22:02:07.554Z,70.18
2023-05-10T22:04:34.862Z,70.59
2023-05-10T22:07:01.832Z,71.38
2023-05-10T22:09:28.835Z,72.29
2023-05-10T22:11:55.649Z,72.27
2023-05-10T22:14:23.066Z,72.59
2023-05-10T22:16:50.075Z,72.73
2023-05-10T22:19:17.006Z,73.39
2023-05-10T22:21:44.110Z,73.77
2023-05-10T22:24:10.908Z,74.12
2023-05-10T22:26:37.693Z,74.10
2023-05-10T22:29:04.486Z,74.62
2023-05-10T22:31:31.574Z,75.34
2023-05-10T22:33:58.733Z,75.91
2023-05-10T22:36:25.583Z,76.11
2023-05-10T22:38:52.373Z,76.42
2023-05-10T22:41:19.372Z,76.89
2023-05-10T22:43:46.144Z,77.24
2023-05-10T22:46:13.461Z,78.17
2023-05-10T22:48:40.356Z,78.73
2023-05-10T22:51:07.183Z,79.19
2023-05-10T22:53:34.042Z,79.58
2023-05-10T22:56:01.236Z,80.17
2023-05-10T22:58:28.024Z,80.68
2023-05-10T23:00:55.449Z,81.38
2023-05-10T23:03:22.454Z,82.12
2023-05-10T23:05:49.330Z,82.93
2023-05-10T23:08:16.553Z,83.76
2023-05-10T23:10:43.384Z,84.51
2023-05-10T23:13:10.162Z,85.31
2023-05-10T23:15:37.225Z,86.36
2023-05-10T23:18:06.033Z,87.14
2023-05-10T23:20:33.477Z,87.75
2023-05-10T23:23:00.586Z,88.44
2023-05-10T23:25:27.742Z,89.19
2023-05-10T23:27:54.891Z,89.69
2023-05-10T23:30:21.760Z,90.12
2023-05-10T23:32:48.479Z,90.45
2023-05-10T23:35:15.575Z,90.52
2023-05-10T23:37:43.084Z,91.39
2023-05-10T23:40:10.288Z,91.66
2023-05-10T23:42:37.203Z,91.94
2023-05-10T23:45:04.679Z,92.18
2023-05-10T23:47:31.575Z,92.30
2023-05-10T23:49:58.567Z,92.80
2023-05-10T23:52:25.789Z,93.14
2023-05-10T23:54:53.190Z,93.63
2023-05-10T23:57:20.258Z,94.10
2023-05-10T23:59:46.980Z,94.38
